Home > Products > Valid Products > TAF

000
FTUS44 KHGX 182320
TAFCLL
TAF
KCLL 182320Z 1900/1924 04007KT P6SM SCT050
     FM190200 VRB03KT P6SM FEW050 SCT250
     FM191500 13007KT P6SM SCT035 BKN200=



000
FTUS44 KHGX 182320
TAFUTS
TAF
KUTS 182320Z 1900/1924 VRB03KT P6SM FEW050 FEW250
     FM191500 12005KT P6SM SCT035 BKN200=



000
FTUS44 KHGX 182320
TAFLBX
TAF
KLBX 182320Z 1900/1924 02011KT P6SM SCT050
     FM190200 07002KT P6SM FEW050 SCT250
     FM191200 08001KT 6SM BR BKN250
     FM191500 10006KT P6SM SCT035 BKN250=



000
FTUS44 KHGX 182320
TAFGLS
TAF
KGLS 182320Z 1900/1924 03005KT P6SM FEW050
     FM191100 08007KT P6SM FEW040 BKN250
     FM191800 11009KT P6SM FEW035 BKN250=



000
FTUS44 KHGX 182320
TAFHOU
TAF
KHOU 182320Z 1900/1924 04006KT P6SM SCT050
     FM190200 07002KT P6SM FEW050 SCT250
     FM191500 10006KT P6SM SCT035 BKN250=



000
FTUS44 KHGX 182320
TAFIAH
TAF
KIAH 182320Z 1900/2006 05009KT P6SM SCT050
     FM190200 07002KT P6SM FEW050 SCT250
     FM191500 10006KT P6SM SCT035 BKN250
     FM192100 13009KT P6SM SCT050 BKN250
     FM200200 16005KT P6SM SCT250=



000
FTUS44 KHGX 182320
TAFSGR
TAF
KSGR 182320Z 1900/1924 VRB04KT P6SM FEW050 SCT250
     FM191500 10006KT P6SM SCT035 BKN250=



000
FTUS44 KHGX 182320
TAFCXO
TAF
KCXO 182320Z 1900/1924 VRB02KT P6SM FEW050 FEW250
     FM191000 VRB01KT 4SM BR SCT250
     FM191500 10003KT P6SM SCT035 BKN250=



000
FTUS44 KHGX 182057 AAA
TAFHOU
TAF AMD
KHOU 182057Z 1821/1918 01009KT P6SM SCT050
     FM190300 07002KT P6SM FEW050 SCT250
     FM191500 10006KT P6SM SCT035 BKN250=



000
FTUS44 KHGX 182057 AAA
TAFIAH
TAF AMD
KIAH 182057Z 1821/1924 03009KT P6SM SCT050
     FM190300 07002KT P6SM FEW050 SCT250
     FM191500 10006KT P6SM SCT035 BKN250
     FM192100 13009KT P6SM SCT050 BKN250=



000
FTUS44 KHGX 181725
TAFHOU
TAF
KHOU 181725Z 1818/1918 01009KT P6SM SCT050
     FM190600 07002KT P6SM FEW050 SCT250
     FM191500 10006KT P6SM SCT035 BKN250=



000
FTUS44 KHGX 181725
TAFGLS
TAF
KGLS 181725Z 1818/1918 02008KT P6SM SKC
     FM182100 06008KT P6SM SCT050
     FM190000 11005KT P6SM FEW050
     FM191100 08007KT P6SM FEW040 BKN250
     FM191500 09009KT P6SM SCT035 BKN250=



000
FTUS44 KHGX 181725
TAFUTS
TAF
KUTS 181725Z 1818/1918 VRB04KT P6SM SCT050
     FM190600 VRB03KT P6SM FEW050 SCT250
     FM191200 09003KT P6SM FEW040 BKN250
     FM191500 12005KT P6SM SCT035 BKN200=



000
FTUS44 KHGX 181725
TAFIAH
TAF
KIAH 181725Z 1818/1924 03009KT P6SM SCT050
     FM190600 07002KT P6SM FEW050 SCT250
     FM191500 10006KT P6SM SCT035 BKN250
     FM192100 13009KT P6SM SCT050 BKN250=



000
FTUS44 KHGX 181725
TAFSGR
TAF
KSGR 181725Z 1818/1918 01011KT P6SM SCT050
     FM190600 07002KT P6SM FEW050 SCT250
     FM191500 10006KT P6SM SCT035 BKN250=



000
FTUS44 KHGX 181725
TAFCLL
TAF
KCLL 181725Z 1818/1918 04008KT P6SM SCT050
     FM190600 VRB03KT P6SM FEW050 SCT250
     FM191200 09004KT P6SM FEW040 BKN250
     FM191500 12007KT P6SM SCT035 BKN200=



000
FTUS44 KHGX 181725
TAFLBX
TAF
KLBX 181725Z 1818/1918 02011KT P6SM SCT050
     FM190600 07002KT 6SM BR FEW050 SCT250
     FM191500 10006KT P6SM SCT035 BKN250=



000
FTUS44 KHGX 181725
TAFCXO
TAF
KCXO 181725Z 1818/1918 01006KT P6SM SCT050
     FM190600 VRB02KT P6SM FEW050 SCT250
     FM191500 10003KT P6SM SCT035 BKN250=



000
FTUS44 KHGX 181629 AAA
TAFGLS
TAF AMD
KGLS 181629Z 1816/1912 36009KT P6SM SKC
     FM182100 05008KT P6SM SKC
     FM190000 11005KT P6SM FEW050
     FM191100 08007KT P6SM FEW040 BKN250=



000
FTUS44 KHGX 181257 AAA
TAFCLL
TAF AMD
KCLL 181257Z 1813/1912 34004KT 6SM BR BKN050
     FM181500 03007KT P6SM SCT050
     FM190600 06004KT P6SM SCT250=



000
FTUS44 KHGX 181256 AAA
TAFUTS
TAF AMD
KUTS 181256Z 1813/1912 00000KT P6SM OVC090
      TEMPO 1813/1814 BKN020
     FM181400 01005KT P6SM SCT040
     FM190300 05004KT P6SM SCT250=



000
FTUS44 KHGX 181120
TAFHOU
TAF
KHOU 181120Z 1812/1912 03004KT P6SM SCT050 OVC070
     FM181500 02009KT P6SM SCT050
     FM190200 09004KT P6SM SCT250=



000
FTUS44 KHGX 181120
TAFCLL
TAF
KCLL 181120Z 1812/1912 34006KT 4SM BR OVC080
     FM181400 03007KT P6SM SCT045
     FM190600 06004KT P6SM SCT250=



000
FTUS44 KHGX 181120
TAFGLS
TAF
KGLS 181120Z 1812/1912 02011KT P6SM SCT025 OVC050
     FM181500 04012KT P6SM SCT040
     FM182100 11008KT P6SM FEW045 SCT250
     FM190300 VRB05KT P6SM SCT250=



000
FTUS44 KHGX 181120
TAFIAH
TAF
KIAH 181120Z 1812/1918 34004KT P6SM BKN070 OVC100
     FM181500 02009KT P6SM SCT050
     FM190200 VRB03KT P6SM SCT250
     FM191600 11005KT P6SM FEW040 SCT250=



000
FTUS44 KHGX 181120
TAFCXO
TAF
KCXO 181120Z 1812/1912 00000KT P6SM OVC100
     FM181500 03007KT P6SM FEW040
     FM190300 VRB03KT P6SM SCT250=



000
FTUS44 KHGX 181120
TAFUTS
TAF
KUTS 181120Z 1812/1912 00000KT P6SM OVC080
     FM181400 01005KT P6SM SCT040
     FM190300 05004KT P6SM SCT250=



000
FTUS44 KHGX 181120
TAFSGR
TAF
KSGR 181120Z 1812/1912 01005KT P6SM OVC090
     FM181500 02008KT P6SM SCT040
     FM190200 08003KT P6SM SCT250=



000
FTUS44 KHGX 181120
TAFLBX
TAF
KLBX 181120Z 1812/1912 02004KT P6SM OVC090
     FM181500 04008KT P6SM BKN040
     FM190200 VRB03KT P6SM SCT250=



000
FTUS44 KHGX 180900 AAA
TAFHOU
TAF AMD
KHOU 180900Z 1809/1906 02006KT P6SM OVC100
     FM181500 02008KT P6SM BKN040
     FM190200 04004KT P6SM SKC=



000
FTUS44 KHGX 180900 AAA
TAFIAH
TAF AMD
KIAH 180900Z 1809/1912 01004KT P6SM OVC100
     FM181500 02009KT P6SM BKN050
     FM190200 03004KT P6SM SKC=



000
FTUS44 KHGX 180520
TAFSGR
TAF
KSGR 180520Z 1806/1906 08004KT P6SM SCT025 BKN060
     FM181500 02008KT P6SM BKN040
     FM190200 04003KT P6SM SKC=



000
FTUS44 KHGX 180520
TAFCLL
TAF
KCLL 180520Z 1806/1906 VRB05KT P6SM SCT025 BKN050
      TEMPO 1806/1810 5SM -RADZ BKN025
     FM181500 03007KT P6SM BKN050
     FM190200 04005KT P6SM SKC=



000
FTUS44 KHGX 180520
TAFHOU
TAF
KHOU 180520Z 1806/1906 06006KT P6SM SCT025 BKN060
     FM181500 02008KT P6SM BKN040
     FM190200 04004KT P6SM SKC=



000
FTUS44 KHGX 180520
TAFLBX
TAF
KLBX 180520Z 1806/1906 07006KT P6SM SCT015 BKN050
     FM181500 04008KT P6SM BKN040
     FM190200 06003KT P6SM SKC=



000
FTUS44 KHGX 180520
TAFUTS
TAF
KUTS 180520Z 1806/1906 VRB04KT P6SM SCT025 BKN050
     FM181500 01005KT P6SM BKN050
     FM190200 03001KT P6SM SKC=



000
FTUS44 KHGX 180520
TAFIAH
TAF
KIAH 180520Z 1806/1912 08009KT P6SM SCT025 BKN050
     FM181500 02009KT P6SM BKN050
     FM190200 03004KT P6SM SKC=



000
FTUS44 KHGX 180520
TAFCXO
TAF
KCXO 180520Z 1806/1906 VRB05KT P6SM SCT025 BKN050
     FM181500 02009KT P6SM BKN050
     FM190200 03001KT P6SM SKC=



000
FTUS44 KHGX 180520
TAFGLS
TAF
KGLS 180520Z 1806/1906 04010KT P6SM SCT015 BKN050
     FM181000 02008KT P6SM SCT015 BKN040
     FM181500 04012KT P6SM BKN050
     FM190100 VRB05KT P6SM SKC=



000
FTUS44 KHGX 180323 AAA
TAFIAH
TAF AMD
KIAH 180323Z 1803/1906 11009KT P6SM SCT020 BKN060
     FM181100 36004KT P6SM SCT015 BKN040
     FM181500 03009KT P6SM SCT045
     FM190200 VRB04KT P6SM SKC=



000
FTUS44 KHGX 180323 AAA
TAFHOU
TAF AMD
KHOU 180323Z 1803/1824 08006KT P6SM SCT020 BKN060
     FM181100 02007KT P6SM SCT015 BKN040
     FM181500 03008KT P6SM BKN040=



000
FTUS44 KHGX 180214 AAA
TAFCLL
TAF AMD
KCLL 180214Z 1802/1824 08004KT P6SM SCT020 BKN050
      TEMPO 1802/1804 5SM -RADZ BKN035
     FM180600 08004KT 5SM BR SCT015 BKN040
     FM181500 03006KT P6SM SCT040=



000
FTUS44 KHGX 180024 AAA
TAFLBX
TAF AMD
KLBX 180024Z 1800/1824 07014KT P6SM SCT020 OVC050
      TEMPO 1800/1802 BKN015
     FM180200 08006KT P6SM SCT020 BKN050
     FM181100 02007KT P6SM SCT015 BKN040
     FM181500 03008KT P6SM BKN040=



000
FTUS44 KHGX 172320
TAFCLL
TAF
KCLL 172320Z 1800/1824 10007KT P6SM SCT035 BKN045 OVC050
     FM180200 08004KT P6SM SCT020 BKN050
     FM180600 08004KT 5SM BR SCT015 BKN040
     FM181500 03006KT P6SM SCT040=



000
FTUS44 KHGX 172320
TAFLBX
TAF
KLBX 172320Z 1800/1824 07014KT P6SM SCT020 OVC050
     FM180200 08006KT P6SM SCT020 BKN050
     FM181100 02007KT P6SM SCT015 BKN040
     FM181500 03008KT P6SM BKN040=



000
FTUS44 KHGX 172320
TAFSGR
TAF
KSGR 172320Z 1800/1824 12009KT P6SM SCT035 BKN060
     FM180200 08004KT P6SM SCT020 BKN050
     FM181100 02007KT P6SM SCT015 BKN040
     FM181500 03008KT P6SM BKN040=



000
FTUS44 KHGX 172320
TAFIAH
TAF
KIAH 172320Z 1800/1906 10009KT P6SM BKN035 BKN045 BKN250
     FM180200 VRB04KT P6SM SCT020 BKN050
     FM181100 36004KT P6SM SCT015 BKN040
     FM181500 03009KT P6SM SCT045
     FM190200 VRB04KT P6SM SKC=



000
FTUS44 KHGX 172320
TAFHOU
TAF
KHOU 172320Z 1800/1824 11009KT P6SM SCT035 BKN045
     FM180200 08004KT P6SM SCT020 BKN050
     FM181100 02007KT P6SM SCT015 BKN040
     FM181500 03008KT P6SM BKN040=



000
FTUS44 KHGX 172320
TAFUTS
TAF
KUTS 172320Z 1800/1824 10005KT P6SM SCT035 BKN045 OVC050
     FM180200 VRB04KT P6SM SCT020 BKN050
     FM180600 VRB04KT 5SM BR SCT015 BKN040
     FM181500 02004KT P6SM SCT040=



000
FTUS44 KHGX 172320
TAFGLS
TAF
KGLS 172320Z 1800/1824 07010G19KT P6SM SCT015 OVC060
     FM180200 07013KT P6SM SCT020 BKN050
     FM181100 02012KT P6SM SCT015 BKN040
     FM181500 03013KT P6SM BKN040=



000
FTUS44 KHGX 172320
TAFCXO
TAF
KCXO 172320Z 1800/1824 10008KT P6SM SCT035 BKN045 OVC050
     FM180200 VRB03KT P6SM SCT020 BKN050
     FM180600 00000KT 5SM BR OVC050
     FM181100 36004KT 4SM BR SCT015 BKN040
     FM181500 03009KT P6SM SCT045=



000
FTUS44 KHGX 172105 AAB
TAFIAH
TAF AMD
KIAH 172105Z 1721/1824 07008KT P6SM BKN035 BKN060 BKN250
     FM180200 VRB04KT P6SM SCT020 BKN050
     FM181100 36004KT P6SM SCT015 BKN040
     FM181500 03009KT P6SM BKN045=



000
FTUS44 KHGX 172105 AAB
TAFHOU
TAF AMD
KHOU 172105Z 1721/1818 11009KT P6SM SCT020 BKN080 BKN100
     FM180200 08004KT P6SM SCT020 BKN050
     FM181100 02007KT P6SM SCT015 BKN040
     FM181500 03008KT P6SM BKN040=



000
FTUS44 KHGX 172012 AAA
TAFUTS
TAF AMD
KUTS 172012Z 1720/1818 VRB05KT P6SM BKN035
     FM180200 VRB04KT P6SM SCT020 BKN050
     FM180600 VRB04KT 4SM BR SCT015 BKN040
     FM181500 36004KT P6SM BKN040=



000
FTUS44 KHGX 172012 AAA
TAFCXO
TAF AMD
KCXO 172012Z 1720/1818 10008KT P6SM BKN035
     FM180200 VRB03KT P6SM SCT020 BKN050
     FM180600 00000KT 5SM BR OVC050
     FM181100 36004KT 4SM BR SCT015 BKN040
     FM181500 03009KT P6SM BKN045=



000
FTUS44 KHGX 172012 AAA
TAFHOU
TAF AMD
KHOU 172012Z 1720/1818 11009KT P6SM SCT020 BKN080 BKN100
     FM180200 08004KT P6SM SCT020 BKN050
     FM181100 02007KT P6SM SCT015 BKN040
     FM181500 03008KT P6SM BKN040=



000
FTUS44 KHGX 172012 AAA
TAFIAH
TAF AMD
KIAH 172012Z 1720/1824 07008KT P6SM BKN035 BKN060 BKN250
     FM180200 VRB04KT P6SM SCT020 BKN050
     FM181100 36004KT P6SM SCT015 BKN040
     FM181500 03009KT P6SM BKN045=



000
FTUS44 KHGX 172012 AAA
TAFSGR
TAF AMD
KSGR 172012Z 1720/1818 13009KT P6SM SCT028 OVC035
     FM180200 08004KT P6SM SCT020 BKN050
     FM181100 02007KT P6SM SCT015 BKN040
     FM181500 03008KT P6SM BKN040=



000
FTUS44 KHGX 172012 AAA
TAFGLS
TAF AMD
KGLS 172012Z 1720/1818 07010G19KT P6SM BKN014 OVC070
     FM180200 07013KT P6SM SCT020 BKN050
     FM181100 02012KT P6SM SCT015 BKN040
     FM181500 03013KT P6SM BKN040=



000
FTUS44 KHGX 172012 AAA
TAFLBX
TAF AMD
KLBX 172012Z 1720/1818 07014KT P6SM FEW018 BKN024 OVC050
     FM180200 08006KT P6SM SCT020 BKN050
     FM181100 02007KT P6SM SCT015 BKN040
     FM181500 03008KT P6SM BKN040=



000
FTUS44 KHGX 172012 AAA
TAFCLL
TAF AMD
KCLL 172012Z 1720/1818 VRB05KT P6SM BKN035 OVC070
     FM180200 08004KT P6SM SCT020 BKN050
     FM180600 08004KT 4SM BR SCT015 BKN040
     FM181500 03006KT P6SM BKN040=



000
FTUS44 KHGX 171725
TAFCXO
TAF
KCXO 171725Z 1718/1818 09007KT P6SM SCT025 BKN040
      TEMPO 1718/1721 BKN025
     FM180200 VRB03KT P6SM SCT020 BKN050
     FM180600 00000KT 5SM BR OVC050
     FM181100 36004KT 4SM BR SCT015 BKN040
     FM181500 03009KT P6SM BKN045=



000
FTUS44 KHGX 171725
TAFGLS
TAF
KGLS 171725Z 1718/1818 08017KT P6SM SCT025 BKN060
     FM180200 07013KT P6SM SCT020 BKN050
     FM181100 02012KT P6SM SCT015 BKN040
     FM181500 03013KT P6SM BKN040=



000
FTUS44 KHGX 171725
TAFLBX
TAF
KLBX 171725Z 1718/1818 10015KT P6SM SCT030 BKN040
      TEMPO 1718/1720 BKN020
     FM180200 08006KT P6SM SCT020 BKN050
     FM181100 02007KT P6SM SCT015 BKN040
     FM181500 03008KT P6SM BKN040=



000
FTUS44 KHGX 171725
TAFUTS
TAF
KUTS 171725Z 1718/1818 11005KT P6SM SCT030 BKN050
      TEMPO 1718/1721 BKN020
     FM180200 VRB04KT P6SM SCT020 BKN050
     FM180600 VRB04KT 4SM BR SCT015 BKN040
     FM181500 36004KT P6SM BKN040=



000
FTUS44 KHGX 171725
TAFSGR
TAF
KSGR 171725Z 1718/1818 08012KT P6SM SCT020 BKN060
      TEMPO 1718/1720 BKN020
     FM180200 08004KT P6SM SCT020 BKN050
     FM181100 02007KT P6SM SCT015 BKN040
     FM181500 03008KT P6SM BKN040=



000
FTUS44 KHGX 171725
TAFCLL
TAF
KCLL 171725Z 1718/1818 12010KT P6SM SCT020 BKN050
      TEMPO 1718/1721 BKN020
     FM172100 10008KT P6SM SCT020 BKN035
     FM180200 08004KT P6SM SCT020 BKN050
     FM180600 08004KT 4SM BR SCT015 BKN040
     FM181500 03006KT P6SM BKN040=



000
FTUS44 KHGX 171725
TAFIAH
TAF
KIAH 171725Z 1718/1824 09012KT P6SM SCT025 BKN050
      TEMPO 1718/1720 BKN025
     FM180200 VRB04KT P6SM SCT020 BKN050
     FM181100 36004KT P6SM SCT015 BKN040
     FM181500 03009KT P6SM BKN045=



000
FTUS44 KHGX 171725
TAFHOU
TAF
KHOU 171725Z 1718/1818 08013KT P6SM SCT020 BKN050
      TEMPO 1718/1720 BKN020
     FM180200 08004KT P6SM SCT020 BKN050
     FM181100 02007KT P6SM SCT015 BKN040
     FM181500 03008KT P6SM BKN040=



000
FTUS44 KHGX 171557 AAA
TAFIAH
TAF AMD
KIAH 171557Z 1716/1818 09013KT P6SM VCSH FEW050 SCT140 OVC250
     FM171700 10014KT P6SM SCT022 BKN050
     FM172100 10013KT P6SM SCT035 BKN070
     FM180200 VRB04KT P6SM SCT020 BKN050
     FM181100 36004KT P6SM SCT015 BKN040
     FM181500 03007KT P6SM BKN040=



000
FTUS44 KHGX 171557 AAC
TAFHOU
TAF AMD
KHOU 171557Z 1716/1812 08015KT P6SM SCT012 BKN120
      TEMPO 1716/1718 BKN012
     FM172100 10013KT P6SM SCT035 BKN070
     FM180200 08004KT P6SM SCT020 BKN050
     FM181100 02007KT P6SM SCT015 BKN040=



000
FTUS44 KHGX 171557 AAB
TAFSGR
TAF AMD
KSGR 171557Z 1716/1812 08012KT P6SM SCT015 BKN120
      TEMPO 1716/1718 BKN012
     FM172100 10013KT P6SM SCT035 BKN070
     FM180200 08004KT P6SM SCT020 BKN050
     FM181100 02007KT P6SM SCT015 BKN040=



000
FTUS44 KHGX 171457 AAA
TAFGLS
TAF AMD
KGLS 171457Z 1715/1812 08014G21KT P6SM VCSH OVC090
      TEMPO 1715/1716 VRB20KT 3SM TSRA BKN030CB
     FM180200 07009KT P6SM BKN060=



000
FTUS44 KHGX 171311 AAB
TAFHOU
TAF AMD
KHOU 171311Z 1713/1812 09009KT P6SM VCTS SCT050CB BKN100
      TEMPO 1713/1715 VRB19KT 2SM TSRA BKN030CB
     FM171600 09009KT P6SM VCSH SCT050 BKN180
     FM180200 VRB04KT P6SM BKN060=



000
FTUS44 KHGX 171309 AAA
TAFSGR
TAF AMD
KSGR 171309Z 1713/1812 10009KT P6SM VCSH BKN045 BKN080
      TEMPO 1713/1714 VRB17KT 4SM TSRA BKN030CB
     FM180200 VRB04KT P6SM BKN060=



000
FTUS44 KHGX 171251 AAA
TAFLBX
TAF AMD
KLBX 171251Z 1713/1812 10010KT P6SM VCTS BKN070CB BKN090
     FM171600 10010KT P6SM VCSH BKN050 BKN090
     FM180200 VRB04KT P6SM BKN060=



000
FTUS44 KHGX 171240 AAA
TAFHOU
TAF AMD
KHOU 171240Z 1713/1812 09009KT P6SM VCTS SCT050CB BKN180
     FM171600 09009KT P6SM VCSH SCT050 BKN180
     FM180200 VRB04KT P6SM BKN060=



000
FTUS44 KHGX 171122
TAFCXO
TAF
KCXO 171122Z 1712/1812 10006KT P6SM VCSH FEW035 BKN080
     FM180200 VRB03KT P6SM BKN060=



000
FTUS44 KHGX 171122
TAFGLS
TAF
KGLS 171122Z 1712/1812 10012KT P6SM VCSH FEW020 BKN040 BKN100
     FM180200 07009KT P6SM BKN060=



000
FTUS44 KHGX 171122
TAFUTS
TAF
KUTS 171122Z 1712/1812 12004KT P6SM VCSH BKN040
     FM180200 VRB02KT P6SM BKN060=



000
FTUS44 KHGX 171122
TAFCLL
TAF
KCLL 171122Z 1712/1812 11008KT P6SM VCSH FEW035 BKN080
     FM180200 VRB04KT P6SM BKN060=



000
FTUS44 KHGX 171122
TAFLBX
TAF
KLBX 171122Z 1712/1812 10010KT P6SM VCSH BKN050 BKN090
     FM180200 VRB04KT P6SM BKN060=



000
FTUS44 KHGX 171122
TAFSGR
TAF
KSGR 171122Z 1712/1812 10009KT P6SM VCSH BKN045 BKN080
     FM180200 VRB04KT P6SM BKN060=



000
FTUS44 KHGX 171122
TAFHOU
TAF
KHOU 171122Z 1712/1812 09009KT P6SM VCSH SCT045 BKN080
     FM180200 VRB04KT P6SM BKN060=



000
FTUS44 KHGX 171122
TAFIAH
TAF
KIAH 171122Z 1712/1818 10009KT P6SM VCSH SCT035 BKN080
     FM180200 VRB04KT P6SM BKN060
     FM181300 01008KT P6SM SCT060=



000
FTUS44 KHGX 170900 AAA
TAFIAH
TAF AMD
KIAH 170900Z 1709/1812 09007KT P6SM BKN080
     FM171300 09011KT P6SM BKN035 BKN250
     FM180200 07006KT P6SM BKN060=



000
FTUS44 KHGX 170900 AAA
TAFHOU
TAF AMD
KHOU 170900Z 1709/1806 09006KT P6SM FEW028 BKN090
     FM171400 09010KT P6SM BKN035 BKN250
     FM180200 07006KT P6SM BKN060=



000
FTUS44 KHGX 170522
TAFCLL
TAF
KCLL 170522Z 1706/1806 13008KT P6SM SCT025 BKN035 BKN250
     FM171000 12007KT P6SM BKN025 BKN035 BKN250
     FM171500 11011KT P6SM BKN035 BKN060 BKN250
     FM180200 08006KT P6SM BKN050=



000
FTUS44 KHGX 170522
TAFGLS
TAF
KGLS 170522Z 1706/1806 11010KT P6SM FEW015 BKN025 BKN250
     FM171500 09013KT P6SM SCT025 BKN035 BKN250
     FM180200 07006KT P6SM BKN050=



000
FTUS44 KHGX 170522
TAFHOU
TAF
KHOU 170522Z 1706/1806 12008KT P6SM SCT025 SCT035 BKN250
     FM170700 10005KT P6SM SCT015 BKN025
     FM171400 09010KT P6SM BKN035 BKN250
     FM180200 07006KT P6SM BKN060=



000
FTUS44 KHGX 170522
TAFLBX
TAF
KLBX 170522Z 1706/1806 12007KT P6SM SCT025 SCT035 BKN250
     FM170700 09005KT P6SM SCT015 BKN025
     FM171400 11008KT P6SM BKN035 BKN250
     FM180200 07006KT P6SM BKN060=



000
FTUS44 KHGX 170522
TAFIAH
TAF
KIAH 170522Z 1706/1812 11009KT P6SM SCT025 SCT035 BKN250
     FM170700 11006KT P6SM SCT015 BKN025 BKN250
     FM171300 09011KT P6SM BKN035 BKN250
     FM180200 07006KT P6SM BKN060=



000
FTUS44 KHGX 170522
TAFSGR
TAF
KSGR 170522Z 1706/1806 14007KT P6SM SCT025 SCT035 BKN250
     FM170700 09005KT P6SM SCT015 BKN025
     FM171400 10008KT P6SM BKN035 BKN250
     FM180200 07006KT P6SM BKN060=



000
FTUS44 KHGX 170522
TAFUTS
TAF
KUTS 170522Z 1706/1806 14004KT P6SM SCT025 SCT035 BKN250
     FM171000 13003KT P6SM BKN025 BKN035 BKN250
     FM171500 12008KT P6SM BKN035 BKN060 BKN250
     FM180200 08004KT P6SM BKN060=



000
FTUS44 KHGX 170522
TAFCXO
TAF
KCXO 170522Z 1706/1806 13005KT P6SM SCT025 SCT035 BKN250
     FM170800 12003KT P6SM BKN025 BKN035 BKN250
     FM171500 10006KT P6SM BKN035 BKN250
     FM180200 08003KT P6SM BKN060=



000
FTUS44 KHGX 170309 AAA
TAFIAH
TAF AMD
KIAH 170309Z 1703/1806 11009KT P6SM SCT030
     FM170700 11006KT P6SM SCT015 BKN025 BKN250
     FM171300 09009KT P6SM SCT015 BKN035 BKN250
     FM171800 11011KT P6SM BKN035 BKN250
     FM180200 07008KT P6SM BKN045=



000
FTUS44 KHGX 170309 AAA
TAFHOU
TAF AMD
KHOU 170309Z 1703/1724 12008KT P6SM FEW025 SCT045
     FM170700 10005KT P6SM SCT015 BKN025
     FM171400 09010KT P6SM BKN035 BKN250=



000
FTUS44 KHGX 162320
TAFLBX
TAF
KLBX 162320Z 1700/1724 12013KT P6SM SCT040 SCT250
     FM170200 12007KT P6SM SCT025
     FM170700 09005KT 5SM BR BKN015 BKN025
     FM171400 11008KT P6SM BKN035 BKN250=



000
FTUS44 KHGX 162320
TAFUTS
TAF
KUTS 162320Z 1700/1724 15006KT P6SM FEW040 SCT250
     FM170100 14004KT P6SM FEW040 BKN250
     FM170800 13003KT 5SM BR SCT015 BKN025 BKN250
     FM171500 12008KT P6SM SCT015 BKN035 BKN250=



000
FTUS44 KHGX 162320
TAFSGR
TAF
KSGR 162320Z 1700/1724 14013KT P6SM SCT045
     FM170100 14007KT P6SM SCT025 SCT250
     FM170700 09005KT P6SM SCT015 BKN025
     FM171400 10008KT P6SM BKN035 BKN250=



000
FTUS44 KHGX 162320
TAFGLS
TAF
KGLS 162320Z 1700/1724 12012KT P6SM BKN035 BKN250
     FM170600 11010KT P6SM FEW015 BKN025 BKN250
     FM171500 09013KT P6SM SCT025 BKN250=



000
FTUS44 KHGX 162320
TAFCLL
TAF
KCLL 162320Z 1700/1724 16016KT P6SM FEW040 SCT250
     FM170100 14009KT P6SM SCT035 BKN250
     FM170600 12008KT P6SM SCT015 BKN025 BKN250
     FM171500 11011KT P6SM BKN035 BKN250=



000
FTUS44 KHGX 162320
TAFCXO
TAF
KCXO 162320Z 1700/1724 15010KT P6SM FEW040 SCT250
     FM170100 14007KT P6SM SCT025 SCT250
     FM170600 13005KT 6SM BR SCT015 BKN025
     FM170900 12003KT 4SM BR SCT015 BKN025
     FM171500 10006KT P6SM BKN035 BKN250=



000
FTUS44 KHGX 162320
TAFHOU
TAF
KHOU 162320Z 1700/1724 13009KT P6SM FEW025 SCT045
     FM170700 10005KT P6SM SCT015 BKN025
     FM171400 09010KT P6SM BKN035 BKN250=



000
FTUS44 KHGX 162320
TAFIAH
TAF
KIAH 162320Z 1700/1806 13011KT P6SM SCT030
     FM170700 11006KT P6SM SCT015 BKN025 BKN250
     FM171300 09009KT P6SM SCT015 BKN035 BKN250
     FM171800 11011KT P6SM BKN035 BKN250
     FM180200 07008KT P6SM BKN045=



000
FTUS44 KHGX 162156 AAC
TAFIAH
TAF AMD
KIAH 162156Z 1622/1724 15015KT P6SM SCT040 BKN250
     FM170200 13008KT P6SM SCT025
     FM170700 09006KT P6SM FEW006 SCT015 BKN025
     FM171300 09009KT P6SM SCT015 BKN035 BKN250
     FM171800 11011KT P6SM SCT015 BKN060 BKN250=



000
FTUS44 KHGX 162156 AAA
TAFCLL
TAF AMD
KCLL 162156Z 1622/1718 15016KT P6SM FEW040 SCT250
     FM170100 14009KT P6SM SCT035 BKN250
     FM170600 12008KT P6SM SCT015 BKN025 BKN250
     FM171500 11011KT P6SM SCT015 BKN035 BKN250=



000
FTUS44 KHGX 162033 AAA
TAFHOU
TAF AMD
KHOU 162033Z 1621/1718 12013KT P6SM BKN040 BKN250
     FM170200 13009KT P6SM SCT025
     FM170700 09005KT P6SM SCT015 BKN025
     FM171300 09009KT P6SM SCT015 BKN035 BKN250=



000
FTUS44 KHGX 162033 AAB
TAFIAH
TAF AMD
KIAH 162033Z 1621/1724 13011G21KT P6SM SCT040 BKN250
     FM170200 13008KT P6SM SCT025
     FM170700 09006KT P6SM FEW006 SCT015 BKN025
     FM171300 09009KT P6SM SCT015 BKN035 BKN250
     FM171800 11011KT P6SM SCT015 BKN060 BKN250=



000
FTUS44 KHGX 162032 AAA
TAFLBX
TAF AMD
KLBX 162032Z 1621/1718 15013KT P6SM SCT040 SCT250
     FM170200 14007KT P6SM SCT025
     FM170700 09004KT 3SM BR SCT003 BKN015 BKN025
     FM171300 11008KT P6SM SCT015 BKN035 BKN250=



000
FTUS44 KHGX 162012 AAA
TAFGLS
TAF AMD
KGLS 162012Z 1620/1718 12012KT P6SM BKN035
     FM170600 11010KT P6SM FEW015 BKN025
     FM171500 11013KT P6SM SCT035 BKN060=



000
FTUS44 KHGX 162012 AAA
TAFIAH
TAF AMD
KIAH 162012Z 1620/1724 13011G21KT P6SM SCT040 BKN250
     FM170200 13008KT P6SM SCT025
     FM170700 09006KT P6SM FEW006 SCT015 BKN025
     FM171300 09009KT P6SM SCT015 BKN035 BKN250
     FM171800 11011KT P6SM SCT015 BKN060 BKN250=



000
FTUS44 KHGX 161720
TAFCXO
TAF
KCXO 161720Z 1618/1718 14011KT P6SM SCT250
     FM162100 15010KT P6SM FEW040 SCT250
     FM170100 14007KT P6SM SCT025 SCT250
     FM170600 13005KT 6SM BR FEW005 BKN015 BKN025
     FM170900 12003KT 4SM BR SCT005 BKN015 BKN025
     FM171500 10006KT P6SM SCT015 BKN035 BKN080=



000
FTUS44 KHGX 161720
TAFUTS
TAF
KUTS 161720Z 1618/1718 12007KT P6SM SCT250
     FM162100 15006KT P6SM FEW040 SCT250
     FM170100 14004KT P6SM FEW040 BKN250
     FM170800 14003KT 5SM BR SCT015 BKN025 BKN250
     FM171500 12008KT P6SM SCT015 BKN035 BKN250=



000
FTUS44 KHGX 161720
TAFGLS
TAF
KGLS 161720Z 1618/1718 10012KT P6SM FEW040 SCT250
     FM170600 11010KT P6SM FEW015 BKN025
     FM171500 11013KT P6SM SCT035 BKN060=



000
FTUS44 KHGX 161720
TAFLBX
TAF
KLBX 161720Z 1618/1718 13013KT P6SM SCT040 SCT250
     FM170200 14007KT P6SM SCT025
     FM170700 09004KT 3SM BR SCT003 BKN015 BKN025
     FM171300 11008KT P6SM SCT015 BKN035 BKN250=



000
FTUS44 KHGX 161720
TAFHOU
TAF
KHOU 161720Z 1618/1718 12013KT P6SM SCT040 BKN250
     FM170200 13009KT P6SM SCT025
     FM170700 09005KT P6SM SCT015 BKN025
     FM171300 09009KT P6SM SCT015 BKN035 BKN250=



000
FTUS44 KHGX 161720
TAFCLL
TAF
KCLL 161720Z 1618/1718 14013KT P6SM SCT250
     FM162100 15013KT P6SM FEW040 SCT250
     FM170100 14009KT P6SM SCT035 BKN250
     FM170600 12008KT P6SM SCT015 BKN025 BKN250
     FM171500 11011KT P6SM SCT015 BKN035 BKN250=



000
FTUS44 KHGX 161720
TAFIAH
TAF
KIAH 161720Z 1618/1724 12011G21KT P6SM FEW040 BKN250
     FM170200 13008KT P6SM SCT025
     FM170700 09006KT P6SM FEW006 SCT015 BKN025
     FM171300 09009KT P6SM SCT015 BKN035 BKN250
     FM171800 11011KT P6SM SCT015 BKN060 BKN250=



000
FTUS44 KHGX 161720
TAFSGR
TAF
KSGR 161720Z 1618/1718 13013KT P6SM SCT040 SCT250
     FM170200 14007KT P6SM SCT025
     FM170700 09005KT 6SM BR SCT015 BKN025
     FM171300 10008KT P6SM SCT015 BKN035 BKN250=



000
FTUS44 KHGX 161525 AAA
TAFLBX
TAF AMD
KLBX 161525Z 1615/1712 12011KT P6SM BKN040
     FM162100 14012KT P6SM FEW030
     FM170200 14007KT P6SM FEW025
     FM171100 12008KT P6SM BKN025=



000
FTUS44 KHGX 161458 AAA
TAFSGR
TAF AMD
KSGR 161458Z 1615/1712 11012KT P6SM FEW040 SCT250
     FM162100 14013KT P6SM FEW030
     FM170200 14006KT P6SM SCT025
     FM171100 12006KT P6SM BKN025=



000
FTUS44 KHGX 161457 AAA
TAFHOU
TAF AMD
KHOU 161457Z 1615/1712 10012KT P6SM SCT040 SCT250
     FM162100 14012KT P6SM FEW030
     FM170200 14006KT P6SM SCT025
     FM171100 10006KT P6SM BKN025=



000
FTUS44 KHGX 161120
TAFUTS
TAF
KUTS 161120Z 1612/1712 16006KT P6SM SCT250
     FM162100 16006KT P6SM FEW040
     FM170200 14004KT P6SM FEW030
     FM170900 14003KT P6SM BKN025=



000
FTUS44 KHGX 161120
TAFCXO
TAF
KCXO 161120Z 1612/1712 VRB02KT P6SM FEW250
     FM161500 14009KT P6SM SCT250
     FM162100 15010KT P6SM FEW040
     FM170200 14004KT P6SM FEW030
     FM170900 12003KT P6SM BKN025=



000
FTUS44 KHGX 161120
TAFGLS
TAF
KGLS 161120Z 1612/1712 10012KT P6SM FEW035
     FM162100 13014KT P6SM SCT025=



000
FTUS44 KHGX 161120
TAFLBX
TAF
KLBX 161120Z 1612/1712 VRB03KT P6SM FEW025
     FM161500 12011KT P6SM FEW025
     FM162100 14012KT P6SM FEW030
     FM170200 14007KT P6SM FEW025
     FM171100 12008KT P6SM BKN025=



000
FTUS44 KHGX 161120
TAFHOU
TAF
KHOU 161120Z 1612/1712 09005KT P6SM FEW250
     FM161500 11011KT P6SM SCT250
     FM162100 14012KT P6SM FEW030
     FM170200 14006KT P6SM SCT025
     FM171100 10006KT P6SM BKN025=



000
FTUS44 KHGX 161120
TAFIAH
TAF
KIAH 161120Z 1612/1718 11004KT P6SM FEW250
     FM161500 11011KT P6SM SCT250
     FM162100 13014KT P6SM FEW040
     FM170200 13006KT P6SM SCT025
     FM171300 10007KT P6SM BKN025=



000
FTUS44 KHGX 161120
TAFSGR
TAF
KSGR 161120Z 1612/1712 11006KT P6SM FEW250
     FM161500 12012KT P6SM SCT250
     FM162100 14013KT P6SM FEW030
     FM170200 14006KT P6SM SCT025
     FM171100 12006KT P6SM BKN025=



000
FTUS44 KHGX 161120
TAFCLL
TAF
KCLL 161120Z 1612/1712 13006KT P6SM FEW250
     FM161500 14013KT P6SM SCT250
     FM162100 15013KT P6SM FEW040
     FM170200 14008KT P6SM FEW030
     FM170600 12008KT P6SM BKN025=



000
FTUS44 KHGX 160857 AAA
TAFIAH
TAF AMD
KIAH 160857Z 1609/1712 VRB03KT P6SM SKC
     FM161500 11011KT P6SM SCT250
     FM162100 13014KT P6SM FEW040 SCT250
     FM170200 14006KT P6SM FEW025 BKN250=



000
FTUS44 KHGX 160857 AAA
TAFHOU
TAF AMD
KHOU 160857Z 1609/1706 VRB03KT P6SM SKC
     FM161500 11011KT P6SM SCT250
     FM162100 14012KT P6SM FEW030 SCT250
     FM170200 14006KT P6SM FEW025 BKN250=



000
FTUS44 KHGX 160524
TAFCLL
TAF
KCLL 160524Z 1606/1706 VRB04KT P6SM SKC
     FM161500 14013KT P6SM SCT250
     FM162100 15013KT P6SM FEW040 SCT250
     FM170200 14008KT P6SM FEW030 BKN250=



000
FTUS44 KHGX 160524
TAFSGR
TAF
KSGR 160524Z 1606/1706 VRB02KT P6SM SKC
     FM161500 12012KT P6SM SCT250
     FM162100 14012KT P6SM FEW030 SCT250
     FM170200 14006KT P6SM FEW025 BKN250=



000
FTUS44 KHGX 160524
TAFUTS
TAF
KUTS 160524Z 1606/1706 VRB02KT P6SM SKC
     FM161500 14007KT P6SM SCT250
     FM162100 15007KT P6SM FEW040 SCT250
     FM170200 14004KT P6SM FEW030 BKN250=



000
FTUS44 KHGX 160524
TAFGLS
TAF
KGLS 160524Z 1606/1706 03006KT P6SM SKC
     FM161100 09012KT P6SM SKC
     FM161500 10014KT P6SM FEW025 SCT250
     FM162100 13014KT P6SM SCT025 SCT250=



000
FTUS44 KHGX 160524
TAFCXO
TAF
KCXO 160524Z 1606/1706 VRB02KT P6SM SKC
     FM161500 14009KT P6SM SCT250
     FM162100 15010KT P6SM FEW040 SCT250
     FM170200 14004KT P6SM FEW030 BKN250=



000
FTUS44 KHGX 160524
TAFHOU
TAF
KHOU 160524Z 1606/1706 VRB03KT P6SM SKC
     FM161500 11011KT P6SM SCT250
     FM162100 14012KT P6SM FEW030 SCT250
     FM170200 14006KT P6SM FEW025 BKN250=



000
FTUS44 KHGX 160524
TAFLBX
TAF
KLBX 160524Z 1606/1706 VRB03KT P6SM SKC
     FM161500 11011KT P6SM FEW025 SCT250
     FM162100 14012KT P6SM FEW030 SCT250
     FM170200 14006KT P6SM FEW025 BKN250=



000
FTUS44 KHGX 160524
TAFIAH
TAF
KIAH 160524Z 1606/1712 VRB03KT P6SM SKC
     FM161500 11011KT P6SM SCT250
     FM162100 13014KT P6SM FEW040 SCT250
     FM170200 14006KT P6SM FEW025 BKN250=



000
FTUS44 KHGX 160257 AAA
TAFHOU
TAF AMD
KHOU 160257Z 1603/1624 VRB04KT P6SM SKC
     FM161500 11011KT P6SM SCT250
     FM162100 14012KT P6SM FEW030 SCT250=



000
FTUS44 KHGX 160257 AAA
TAFIAH
TAF AMD
KIAH 160257Z 1603/1706 VRB04KT P6SM SKC
     FM161500 11011KT P6SM SCT250
     FM162100 13014KT P6SM SCT040 SCT250
     FM170200 14006KT P6SM SCT025 SCT250=



    US Dept of Commerce
    National Oceanic and Atmospheric Administration
    National Weather Service
    1325 East West Highway
    Silver Spring, MD 20910
    Page Author: NWS Internet Services Team
Disclaimer
Information Quality
Credits
Glossary
Privacy Policy
Freedom of Information Act (FOIA)
About Us
Career Opportunities